Time;durP1;ratioP1;P1;durP2;ratioP2;P2;SDS_P1;SDS_P2;PMS_P1;PMS_P2;Temp;Humidity;BMP_temperature;BMP_pressure;BME280_temperature;BME280_humidity;BME280_pressure;Samples;Min_cycle;Max_cycle;Signal;HPM_P1;HPM_P2
2022/08/14 00:02:16;;;;;;;28.70;26.97;;;;;;;;;;5055377;28;20439;-78
2022/08/14 00:04:44;;;;;;;29.93;28.13;;;;;;;;;;5055133;28;20793;-79
2022/08/14 00:07:13;;;;;;;29.03;27.13;;;;;;;;;;5055488;28;20431;-79
2022/08/14 00:09:40;;;;;;;30.03;28.20;;;;;;;;;;5055041;28;20426;-79
2022/08/14 00:12:08;;;;;;;28.90;27.20;;;;;;;;;;5055255;28;20505;-79
2022/08/14 00:14:35;;;;;;;29.17;27.27;;;;;;;;;;5054921;28;20939;-79
2022/08/14 00:17:03;;;;;;;30.50;28.20;;;;;;;;;;5054863;28;20440;-78
2022/08/14 00:19:30;;;;;;;29.50;27.60;;;;;;;;;;5054608;28;20491;-79
2022/08/14 00:21:58;;;;;;;29.47;27.57;;;;;;;;;;5054985;28;20421;-79
2022/08/14 00:24:26;;;;;;;29.43;27.70;;;;;;;;;;5054773;28;20907;-78
2022/08/14 00:26:54;;;;;;;30.53;28.60;;;;;;;;;;5054706;28;20435;-78
2022/08/14 00:29:21;;;;;;;30.50;28.60;;;;;;;;;;5054507;28;20414;-79
2022/08/14 00:31:49;;;;;;;29.57;27.67;;;;;;;;;;5054520;28;20478;-78
2022/08/14 00:34:16;;;;;;;29.37;27.67;;;;;;;;;;5054846;28;20439;-78
2022/08/14 00:36:43;;;;;;;31.07;29.00;;;;;;;;;;5054796;28;20443;-78
2022/08/14 00:39:14;;;;;;;29.33;27.57;;;;;;;;;;5054303;28;20481;-78
2022/08/14 00:41:43;;;;;;;28.20;26.50;;;;;;;;;;5054639;28;20467;-78
2022/08/14 00:44:10;;;;;;;29.87;28.07;;;;;;;;;;5054626;28;20423;-79
2022/08/14 00:46:38;;;;;;;29.90;28.00;;;;;;;;;;5054454;28;20446;-78
2022/08/14 00:49:06;;;;;;;29.73;28.03;;;;;;;;;;5053874;28;20939;-78
2022/08/14 00:51:34;;;;;;;28.97;27.20;;;;;;;;;;5054661;28;20443;-79
2022/08/14 00:54:02;;;;;;;29.40;27.70;;;;;;;;;;5054460;28;20442;-79
2022/08/14 00:56:29;;;;;;;29.33;27.57;;;;;;;;;;5054336;28;20544;-78
2022/08/14 00:58:58;;;;;;;29.33;27.60;;;;;;;;;;5054501;28;20430;-79
2022/08/14 01:01:25;;;;;;;28.63;26.83;;;;;;;;;;5054350;28;20439;-78
2022/08/14 01:03:54;;;;;;;28.30;26.70;;;;;;;;;;5054478;28;20437;-79
2022/08/14 01:06:22;;;;;;;28.73;27.13;;;;;;;;;;5053927;28;20814;-79
2022/08/14 01:08:50;;;;;;;28.63;27.03;;;;;;;;;;5054142;28;20446;-79
2022/08/14 01:11:18;;;;;;;29.40;27.60;;;;;;;;;;5053826;28;20446;-78
2022/08/14 01:13:45;;;;;;;29.23;27.53;;;;;;;;;;5053707;28;20971;-79
2022/08/14 01:16:15;;;;;;;28.10;26.30;;;;;;;;;;5054046;28;20423;-79
2022/08/14 01:21:32;;;;;;;28.27;26.67;;;;;;;;;;5054004;28;20421;-79
2022/08/14 01:24:00;;;;;;;28.77;27.17;;;;;;;;;;5053816;28;20442;-78
2022/08/14 01:26:28;;;;;;;29.53;27.73;;;;;;;;;;5053778;28;20439;-79
2022/08/14 01:28:56;;;;;;;28.90;27.20;;;;;;;;;;5052304;28;20458;-79
2022/08/14 01:31:28;;;;;;;28.43;26.80;;;;;;;;;;5053737;28;20447;-78
2022/08/14 01:33:57;;;;;;;27.40;25.80;;;;;;;;;;5053738;28;20639;-78
2022/08/14 01:36:25;;;;;;;28.53;26.83;;;;;;;;;;5053636;28;20454;-79
2022/08/14 01:38:55;;;;;;;27.93;26.13;;;;;;;;;;5053561;28;20520;-78
2022/08/14 01:41:23;;;;;;;28.30;26.63;;;;;;;;;;5053496;28;20430;-79
2022/08/14 01:43:51;;;;;;;28.20;26.50;;;;;;;;;;5053506;28;20434;-79
2022/08/14 01:46:19;;;;;;;29.13;27.23;;;;;;;;;;5053485;28;20435;-79
2022/08/14 01:48:47;;;;;;;28.40;26.60;;;;;;;;;;5053452;28;20747;-77
2022/08/14 01:51:15;;;;;;;27.67;26.07;;;;;;;;;;5053071;28;20770;-79
2022/08/14 01:53:44;;;;;;;29.63;27.23;;;;;;;;;;5052884;28;20834;-79
2022/08/14 01:56:15;;;;;;;27.33;25.73;;;;;;;;;;5052879;28;20454;-79
2022/08/14 01:58:44;;;;;;;28.77;27.07;;;;;;;;;;5052878;28;20483;-79
2022/08/14 02:01:13;;;;;;;28.90;27.20;;;;;;;;;;5052735;28;20447;-79
2022/08/14 02:03:41;;;;;;;28.80;27.10;;;;;;;;;;5051906;28;20442;-78
2022/08/14 02:06:10;;;;;;;29.90;28.07;;;;;;;;;;5053027;28;20858;-79
2022/08/14 02:08:38;;;;;;;27.50;25.90;;;;;;;;;;5053169;28;20438;-78
2022/08/14 02:11:24;;;;;;;28.87;27.07;;;;;;;;;;5053199;28;20508;-79
2022/08/14 02:13:58;;;;;;;27.27;25.57;;;;;;;;;;5052773;28;20489;-79
2022/08/14 02:16:28;;;;;;;27.93;26.27;;;;;;;;;;5053038;28;20454;-78
2022/08/14 02:18:56;;;;;;;27.30;25.70;;;;;;;;;;5052753;28;20505;-79
2022/08/14 02:21:25;;;;;;;29.00;27.20;;;;;;;;;;5052657;28;20426;-79
2022/08/14 02:23:54;;;;;;;27.43;25.93;;;;;;;;;;5053139;28;20521;-79
2022/08/14 02:26:23;;;;;;;26.90;25.23;;;;;;;;;;5052761;28;20453;-78
2022/08/14 02:28:51;;;;;;;27.90;26.30;;;;;;;;;;5052773;28;20454;-78
2022/08/14 02:31:20;;;;;;;27.67;26.07;;;;;;;;;;5052583;28;20796;-79
2022/08/14 02:33:48;;;;;;;27.67;25.90;;;;;;;;;;5052375;28;20475;-79
2022/08/14 02:36:16;;;;;;;27.77;26.20;;;;;;;;;;5052365;28;20811;-79
2022/08/14 02:38:43;;;;;;;27.30;25.63;;;;;;;;;;5052270;28;20834;-78
2022/08/14 02:41:12;;;;;;;27.87;26.17;;;;;;;;;;5052747;28;20439;-78
2022/08/14 02:43:39;;;;;;;28.67;26.97;;;;;;;;;;5052750;28;20514;-79
2022/08/14 02:46:09;;;;;;;27.37;25.73;;;;;;;;;;5052671;28;20433;-79
2022/08/14 02:48:39;;;;;;;28.13;26.53;;;;;;;;;;5052231;28;20931;-79
2022/08/14 02:51:08;;;;;;;28.20;26.50;;;;;;;;;;5052616;28;20517;-79
2022/08/14 02:53:35;;;;;;;28.07;26.47;;;;;;;;;;5052233;28;21009;-78
2022/08/14 02:56:03;;;;;;;29.30;27.47;;;;;;;;;;5052590;28;20471;-79
2022/08/14 02:58:31;;;;;;;28.10;26.47;;;;;;;;;;5052471;28;20442;-78
2022/08/14 03:00:58;;;;;;;27.80;26.20;;;;;;;;;;5052545;28;20482;-79
2022/08/14 03:03:26;;;;;;;28.90;27.00;;;;;;;;;;5052705;28;20420;-78
2022/08/14 03:05:55;;;;;;;29.23;27.03;;;;;;;;;;5052124;28;20455;-78
2022/08/14 03:08:24;;;;;;;28.63;26.83;;;;;;;;;;5052434;28;20462;-79
2022/08/14 03:10:52;;;;;;;28.63;26.83;;;;;;;;;;5052439;28;20447;-79
2022/08/14 03:13:19;;;;;;;27.27;25.60;;;;;;;;;;5054014;28;20500;-79
2022/08/14 03:15:49;;;;;;;27.73;26.03;;;;;;;;;;5056306;28;20503;-78
2022/08/14 03:18:16;;;;;;;28.33;26.70;;;;;;;;;;5055677;28;20426;-79
2022/08/14 03:20:44;;;;;;;28.67;26.90;;;;;;;;;;5055997;28;20435;-79
2022/08/14 03:23:13;;;;;;;27.50;25.90;;;;;;;;;;5055941;28;20421;-79
2022/08/14 03:25:41;;;;;;;28.57;26.93;;;;;;;;;;5056051;28;20434;-79
2022/08/14 03:28:10;;;;;;;28.30;26.70;;;;;;;;;;5056119;28;20421;-79
2022/08/14 03:30:37;;;;;;;28.80;27.20;;;;;;;;;;5056136;28;20405;-79
2022/08/14 03:33:05;;;;;;;29.73;27.83;;;;;;;;;;5056170;28;20493;-79
2022/08/14 03:35:33;;;;;;;29.13;27.43;;;;;;;;;;5055905;28;20504;-78
2022/08/14 03:38:07;;;;;;;28.20;26.50;;;;;;;;;;5055483;28;20904;-79
2022/08/14 03:40:37;;;;;;;27.97;26.43;;;;;;;;;;5055506;28;20461;-79
2022/08/14 03:43:05;;;;;;;29.00;27.30;;;;;;;;;;5055856;28;20465;-79
2022/08/14 03:45:34;;;;;;;28.43;26.73;;;;;;;;;;5054227;28;20416;-79
2022/08/14 03:48:03;;;;;;;28.40;26.20;;;;;;;;;;5055393;28;20435;-79
2022/08/14 03:50:31;;;;;;;28.83;26.93;;;;;;;;;;5055286;28;20953;-78
2022/08/14 03:52:59;;;;;;;28.70;27.00;;;;;;;;;;5055734;28;20518;-78
2022/08/14 03:55:27;;;;;;;27.83;26.23;;;;;;;;;;5055468;28;20451;-78
2022/08/14 03:57:56;;;;;;;29.13;27.20;;;;;;;;;;5055172;28;20981;-79
2022/08/14 04:00:24;;;;;;;28.50;26.83;;;;;;;;;;5055390;28;20434;-78
2022/08/14 04:02:51;;;;;;;26.87;25.33;;;;;;;;;;5055459;28;20440;-78
2022/08/14 04:05:19;;;;;;;29.20;27.40;;;;;;;;;;5055422;28;20429;-79
2022/08/14 04:07:47;;;;;;;29.17;27.43;;;;;;;;;;5055010;28;20955;-79
2022/08/14 04:10:15;;;;;;;28.30;26.60;;;;;;;;;;5055485;28;20446;-79
2022/08/14 04:12:42;;;;;;;29.40;27.37;;;;;;;;;;5055045;28;20829;-79
2022/08/14 04:15:13;;;;;;;28.20;26.40;;;;;;;;;;5054886;28;20442;-79
2022/08/14 04:17:41;;;;;;;29.17;27.37;;;;;;;;;;5054809;28;20943;-78
2022/08/14 04:20:09;;;;;;;29.70;27.90;;;;;;;;;;5054883;28;20482;-78
2022/08/14 04:22:39;;;;;;;28.87;27.17;;;;;;;;;;5054757;28;20453;-79
2022/08/14 04:25:08;;;;;;;28.87;27.10;;;;;;;;;;5054290;28;20919;-81
2022/08/14 04:27:35;;;;;;;30.40;28.27;;;;;;;;;;5055100;28;20445;-82
2022/08/14 04:30:04;;;;;;;30.13;28.23;;;;;;;;;;5054988;28;20471;-81
2022/08/14 04:32:33;;;;;;;30.33;28.33;;;;;;;;;;5054542;28;20410;-79
2022/08/14 04:35:00;;;;;;;29.20;27.40;;;;;;;;;;5054780;28;20941;-79
2022/08/14 04:45:43;;;;;;;29.00;27.20;;;;;;;;;;5054810;28;20799;-82
2022/08/14 04:48:11;;;;;;;28.63;27.00;;;;;;;;;;5054837;28;20425;-82
2022/08/14 04:50:39;;;;;;;29.17;27.37;;;;;;;;;;5054267;28;20418;-82
2022/08/14 04:53:06;;;;;;;28.00;26.33;;;;;;;;;;5062638;28;20465;-83
2022/08/14 04:55:34;;;;;;;28.40;26.70;;;;;;;;;;5074331;28;20413;-83
2022/08/14 04:58:01;;;;;;;28.70;26.90;;;;;;;;;;5069708;28;20421;-82
2022/08/14 05:00:29;;;;;;;28.73;27.03;;;;;;;;;;5073543;28;20452;-83
2022/08/14 05:02:56;;;;;;;28.73;26.93;;;;;;;;;;5074573;28;20423;-83
2022/08/14 05:05:25;;;;;;;28.97;27.10;;;;;;;;;;5074512;28;20440;-83
2022/08/14 05:07:53;;;;;;;27.60;26.00;;;;;;;;;;5074051;28;20420;-81
2022/08/14 05:10:24;;;;;;;28.27;26.50;;;;;;;;;;5073973;28;20430;-81
2022/08/14 05:12:52;;;;;;;29.47;27.67;;;;;;;;;;5059993;28;20909;-82
2022/08/14 05:15:21;;;;;;;28.40;26.67;;;;;;;;;;5054259;28;20436;-86
2022/08/14 05:17:49;;;;;;;28.80;27.10;;;;;;;;;;5054427;28;20442;-83
2022/08/14 05:20:16;;;;;;;29.20;27.40;;;;;;;;;;5053547;28;20514;-83
2022/08/14 05:22:45;;;;;;;29.40;27.67;;;;;;;;;;5054158;28;20766;-83
2022/08/14 05:25:12;;;;;;;29.07;27.13;;;;;;;;;;5053815;28;20409;-82
2022/08/14 05:27:40;;;;;;;29.10;27.20;;;;;;;;;;5054041;28;20829;-83
2022/08/14 05:30:08;;;;;;;28.83;27.03;;;;;;;;;;5053727;28;20417;-82
2022/08/14 05:32:37;;;;;;;29.00;27.27;;;;;;;;;;5054078;28;20800;-81
2022/08/14 05:35:05;;;;;;;29.20;27.50;;;;;;;;;;5053954;28;20882;-82
2022/08/14 05:37:32;;;;;;;29.83;28.13;;;;;;;;;;5052628;28;20417;-82
2022/08/14 05:40:01;;;;;;;29.30;27.60;;;;;;;;;;5053320;28;20481;-82
2022/08/14 05:42:29;;;;;;;28.10;26.50;;;;;;;;;;5053486;28;20453;-81
2022/08/14 05:44:56;;;;;;;29.77;27.97;;;;;;;;;;5053622;28;20473;-81
2022/08/14 05:47:24;;;;;;;29.17;27.47;;;;;;;;;;5053763;28;20453;-81
2022/08/14 05:49:51;;;;;;;29.13;27.43;;;;;;;;;;5053476;28;20442;-82
2022/08/14 05:52:19;;;;;;;27.93;26.33;;;;;;;;;;5053648;28;20435;-82
2022/08/14 05:54:46;;;;;;;27.50;26.00;;;;;;;;;;5053437;28;20482;-83
2022/08/14 05:57:15;;;;;;;28.87;27.13;;;;;;;;;;5051816;28;20472;-80
2022/08/14 05:59:43;;;;;;;27.73;26.13;;;;;;;;;;5053022;28;20431;-79
2022/08/14 06:02:11;;;;;;;28.10;26.47;;;;;;;;;;5053238;28;20424;-81
2022/08/14 06:04:38;;;;;;;29.93;27.97;;;;;;;;;;5053187;28;20447;-80
2022/08/14 06:07:06;;;;;;;27.17;25.43;;;;;;;;;;5053237;28;20444;-81
2022/08/14 06:09:33;;;;;;;27.60;25.90;;;;;;;;;;5052814;28;20508;-79
2022/08/14 06:12:01;;;;;;;29.07;27.37;;;;;;;;;;5052845;28;20438;-78
2022/08/14 06:14:30;;;;;;;27.53;25.73;;;;;;;;;;5052656;28;20817;-79
2022/08/14 06:16:57;;;;;;;30.97;29.13;;;;;;;;;;5052761;28;20443;-77
2022/08/14 06:19:24;;;;;;;29.37;27.77;;;;;;;;;;5052536;28;20487;-78
2022/08/14 06:21:52;;;;;;;26.93;25.37;;;;;;;;;;5052687;28;20932;-79
2022/08/14 06:24:19;;;;;;;28.13;26.53;;;;;;;;;;5052747;28;20424;-80
2022/08/14 06:26:46;;;;;;;28.73;27.00;;;;;;;;;;5052503;28;20468;-79
2022/08/14 06:29:14;;;;;;;27.00;25.50;;;;;;;;;;5052710;28;20434;-78
2022/08/14 06:31:42;;;;;;;28.13;26.43;;;;;;;;;;5052523;28;20921;-78
2022/08/14 06:34:10;;;;;;;28.03;26.37;;;;;;;;;;5052604;28;20463;-78
2022/08/14 06:36:37;;;;;;;27.77;26.00;;;;;;;;;;5052429;28;20800;-79
2022/08/14 06:39:05;;;;;;;28.40;26.70;;;;;;;;;;5052440;28;20989;-79
2022/08/14 06:41:32;;;;;;;26.73;25.23;;;;;;;;;;5052933;28;20439;-78
2022/08/14 06:44:00;;;;;;;27.10;25.27;;;;;;;;;;5052398;28;20917;-77
2022/08/14 06:46:29;;;;;;;26.80;25.20;;;;;;;;;;5052448;28;20442;-78
2022/08/14 06:48:58;;;;;;;27.87;26.30;;;;;;;;;;5055694;28;20924;-77
2022/08/14 06:51:25;;;;;;;27.73;26.23;;;;;;;;;;5056417;28;20928;-76
2022/08/14 06:53:53;;;;;;;27.77;26.07;;;;;;;;;;5056637;28;20457;-76
2022/08/14 06:56:20;;;;;;;28.53;26.83;;;;;;;;;;5056345;28;20421;-78
2022/08/14 06:58:47;;;;;;;30.80;28.83;;;;;;;;;;5056640;28;20507;-74
2022/08/14 07:06:46;;;;;;;29.30;27.20;;;;;;;;;;5056280;28;20940;-76
2022/08/14 07:09:13;;;;;;;29.07;27.37;;;;;;;;;;5055902;28;20443;-76
2022/08/14 07:11:41;;;;;;;28.80;27.00;;;;;;;;;;5056560;28;20436;-77
2022/08/14 07:14:08;;;;;;;26.87;25.27;;;;;;;;;;5056057;28;20504;-77
2022/08/14 07:16:36;;;;;;;28.43;26.63;;;;;;;;;;5069160;28;20453;-77
2022/08/14 07:19:07;;;;;;;27.63;25.80;;;;;;;;;;5075974;28;20530;-78
2022/08/14 07:21:35;;;;;;;27.87;26.27;;;;;;;;;;5076271;28;20464;-78
2022/08/14 07:24:03;;;;;;;27.73;26.13;;;;;;;;;;5076205;28;20423;-77
2022/08/14 07:26:30;;;;;;;27.77;26.07;;;;;;;;;;5076143;28;20417;-77
2022/08/14 07:28:58;;;;;;;30.03;28.23;;;;;;;;;;5076016;28;20425;-77
2022/08/14 07:31:25;;;;;;;30.23;28.37;;;;;;;;;;5075767;28;20964;-78
2022/08/14 07:33:52;;;;;;;29.20;27.30;;;;;;;;;;5075557;28;20444;-78
2022/08/14 07:36:22;;;;;;;30.23;28.33;;;;;;;;;;5075607;28;21152;-77
2022/08/14 07:38:49;;;;;;;29.20;27.40;;;;;;;;;;5075528;28;20813;-78
2022/08/14 07:41:17;;;;;;;29.63;27.73;;;;;;;;;;5074649;28;20445;-77
2022/08/14 07:43:44;;;;;;;28.60;26.90;;;;;;;;;;5075825;28;20446;-78
2022/08/14 07:46:12;;;;;;;28.70;26.73;;;;;;;;;;5075762;28;20439;-77
2022/08/14 07:48:40;;;;;;;29.37;27.57;;;;;;;;;;5075232;28;20413;-77
2022/08/14 07:51:07;;;;;;;30.33;28.50;;;;;;;;;;5075354;28;20759;-78
2022/08/14 07:53:36;;;;;;;30.40;28.63;;;;;;;;;;5075333;28;20416;-77
2022/08/14 07:56:04;;;;;;;30.23;28.03;;;;;;;;;;5075566;28;20431;-77
2022/08/14 07:58:32;;;;;;;29.03;27.43;;;;;;;;;;5075132;28;20438;-77
2022/08/14 08:01:01;;;;;;;30.63;28.57;;;;;;;;;;5074828;28;20460;-77
2022/08/14 08:03:29;;;;;;;29.60;27.80;;;;;;;;;;5075491;28;20439;-77
2022/08/14 08:05:56;;;;;;;30.03;28.43;;;;;;;;;;5075246;28;20438;-77
2022/08/14 08:08:26;;;;;;;29.77;27.87;;;;;;;;;;5075085;28;20752;-77
2022/08/14 08:10:56;;;;;;;29.87;28.23;;;;;;;;;;5075350;28;20767;-77
2022/08/14 08:13:25;;;;;;;28.87;27.10;;;;;;;;;;5075137;28;20443;-77
2022/08/14 08:15:53;;;;;;;30.10;28.30;;;;;;;;;;5074959;28;20452;-77
2022/08/14 08:18:21;;;;;;;29.03;27.43;;;;;;;;;;5074947;28;20465;-77
2022/08/14 08:20:49;;;;;;;30.27;28.30;;;;;;;;;;5075165;28;20425;-76
2022/08/14 08:23:17;;;;;;;30.20;28.50;;;;;;;;;;5073693;28;20494;-77
2022/08/14 08:25:46;;;;;;;29.60;27.90;;;;;;;;;;5074936;28;20442;-77
2022/08/14 08:28:16;;;;;;;30.03;28.23;;;;;;;;;;5074733;28;20749;-77
2022/08/14 08:30:47;;;;;;;29.77;28.07;;;;;;;;;;5075157;28;20419;-77
2022/08/14 08:33:15;;;;;;;31.57;29.40;;;;;;;;;;5074922;28;20408;-77
2022/08/14 08:35:43;;;;;;;31.77;29.80;;;;;;;;;;5074448;28;20995;-77
2022/08/14 08:38:12;;;;;;;31.10;29.10;;;;;;;;;;5074681;28;20479;-77
2022/08/14 08:40:41;;;;;;;32.37;30.40;;;;;;;;;;5074724;28;20445;-77
2022/08/14 08:43:09;;;;;;;31.40;29.50;;;;;;;;;;5074721;28;20974;-77
2022/08/14 08:45:38;;;;;;;30.73;28.93;;;;;;;;;;5074665;28;20470;-77
2022/08/14 08:48:06;;;;;;;30.47;28.47;;;;;;;;;;5074423;28;20458;-78
2022/08/14 08:50:35;;;;;;;30.10;28.20;;;;;;;;;;5074713;28;20441;-77
2022/08/14 08:53:03;;;;;;;30.23;28.17;;;;;;;;;;5074343;28;20406;-77
2022/08/14 08:55:31;;;;;;;30.70;28.80;;;;;;;;;;5074113;28;20464;-77
2022/08/14 08:58:00;;;;;;;29.60;27.80;;;;;;;;;;5073955;28;20973;-77
2022/08/14 09:00:32;;;;;;;30.93;28.73;;;;;;;;;;5074395;28;20539;-77
2022/08/14 09:03:03;;;;;;;29.73;27.83;;;;;;;;;;5073992;28;20970;-77
2022/08/14 09:05:30;;;;;;;29.80;28.00;;;;;;;;;;5074282;28;20545;-77
2022/08/14 09:08:15;;;;;;;29.93;28.10;;;;;;;;;;5073883;28;20437;-77
2022/08/14 09:10:42;;;;;;;30.23;28.43;;;;;;;;;;5073913;28;20412;-77
2022/08/14 09:13:11;;;;;;;29.73;27.87;;;;;;;;;;5074103;28;20447;-77
2022/08/14 09:15:39;;;;;;;31.10;29.20;;;;;;;;;;5073789;28;20483;-77
2022/08/14 09:18:08;;;;;;;31.53;29.63;;;;;;;;;;5073454;28;20911;-77
2022/08/14 09:20:36;;;;;;;30.33;28.53;;;;;;;;;;5073992;28;20771;-78
2022/08/14 09:23:04;;;;;;;31.80;29.80;;;;;;;;;;5073699;28;20457;-77
2022/08/14 09:25:32;;;;;;;31.30;29.40;;;;;;;;;;5073502;28;20933;-77
2022/08/14 09:27:59;;;;;;;30.37;28.47;;;;;;;;;;5073690;28;20834;-77
2022/08/14 09:30:27;;;;;;;31.60;29.60;;;;;;;;;;5073719;28;20438;-77
2022/08/14 09:33:04;;;;;;;31.30;29.40;;;;;;;;;;5073500;28;20447;-77
2022/08/14 09:35:43;;;;;;;29.80;28.00;;;;;;;;;;5073348;28;20458;-77
2022/08/14 09:38:17;;;;;;;32.23;30.13;;;;;;;;;;5073314;28;21069;-77
2022/08/14 09:40:55;;;;;;;30.63;28.47;;;;;;;;;;5073581;28;20476;-78
2022/08/14 09:43:28;;;;;;;31.33;28.80;;;;;;;;;;5073523;28;20946;-77
2022/08/14 09:45:57;;;;;;;30.60;28.73;;;;;;;;;;5071907;28;20464;-77
2022/08/14 09:48:25;;;;;;;30.90;28.90;;;;;;;;;;5073517;28;20848;-77
2022/08/14 09:50:55;;;;;;;30.70;28.77;;;;;;;;;;5073446;28;20455;-77
2022/08/14 09:53:35;;;;;;;30.70;28.90;;;;;;;;;;5073229;28;20850;-77
2022/08/14 09:56:03;;;;;;;30.50;28.33;;;;;;;;;;5071709;28;20557;-77
2022/08/14 09:58:37;;;;;;;30.60;28.70;;;;;;;;;;5073482;28;20448;-77
2022/08/14 10:01:09;;;;;;;31.63;29.63;;;;;;;;;;5072890;28;20838;-77
2022/08/14 10:03:37;;;;;;;30.07;27.87;;;;;;;;;;5072946;28;20443;-76
2022/08/14 10:06:07;;;;;;;30.20;28.30;;;;;;;;;;5073133;28;20416;-77
2022/08/14 10:08:42;;;;;;;31.60;29.50;;;;;;;;;;5073151;28;20456;-77
2022/08/14 10:11:16;;;;;;;30.00;28.00;;;;;;;;;;5073082;28;20467;-77
2022/08/14 10:13:44;;;;;;;30.60;28.70;;;;;;;;;;5072796;28;20444;-77
2022/08/14 10:16:13;;;;;;;31.07;29.17;;;;;;;;;;5072654;28;20543;-77
2022/08/14 10:18:40;;;;;;;32.90;30.87;;;;;;;;;;5072526;28;20451;-77
2022/08/14 10:21:11;;;;;;;32.37;30.37;;;;;;;;;;5072899;28;20438;-77
2022/08/14 10:23:46;;;;;;;31.00;28.80;;;;;;;;;;5072483;28;20439;-77
2022/08/14 10:26:16;;;;;;;31.10;29.00;;;;;;;;;;5072756;28;20423;-77
2022/08/14 10:28:45;;;;;;;30.03;28.13;;;;;;;;;;5072579;28;20443;-77
2022/08/14 10:31:20;;;;;;;30.73;28.83;;;;;;;;;;5072718;28;20874;-77
2022/08/14 10:33:59;;;;;;;31.70;29.70;;;;;;;;;;5072512;28;20429;-77
2022/08/14 10:36:42;;;;;;;30.87;28.80;;;;;;;;;;5072714;28;20465;-77
2022/08/14 10:39:17;;;;;;;30.67;28.87;;;;;;;;;;5072742;28;20465;-78
2022/08/14 10:41:45;;;;;;;30.73;28.87;;;;;;;;;;5072480;28;20417;-75
2022/08/14 10:44:13;;;;;;;30.43;28.43;;;;;;;;;;5072800;28;20434;-77
2022/08/14 10:46:41;;;;;;;30.33;28.43;;;;;;;;;;5072844;28;20412;-76
2022/08/14 10:49:16;;;;;;;32.00;30.00;;;;;;;;;;5072331;28;20454;-76
2022/08/14 10:51:55;;;;;;;31.33;29.33;;;;;;;;;;5072436;28;20444;-76
2022/08/14 10:54:30;;;;;;;29.57;27.87;;;;;;;;;;5072840;28;20472;-76
2022/08/14 10:56:57;;;;;;;30.40;28.57;;;;;;;;;;5072116;28;20494;-76
2022/08/14 10:59:25;;;;;;;29.67;27.87;;;;;;;;;;5072664;28;20439;-76
2022/08/14 11:01:52;;;;;;;29.93;27.73;;;;;;;;;;5072346;28;20925;-76
2022/08/14 11:04:27;;;;;;;28.67;26.77;;;;;;;;;;5072266;28;20801;-76
2022/08/14 11:06:56;;;;;;;26.80;25.00;;;;;;;;;;5072532;28;20422;-76
2022/08/14 11:09:23;;;;;;;28.03;26.33;;;;;;;;;;5072468;28;20424;-76
2022/08/14 11:11:56;;;;;;;29.63;27.80;;;;;;;;;;5072323;28;20423;-76
2022/08/14 11:14:23;;;;;;;29.30;27.03;;;;;;;;;;5072175;28;20831;-76
2022/08/14 11:16:51;;;;;;;28.70;27.00;;;;;;;;;;5072033;28;21001;-76
2022/08/14 11:19:21;;;;;;;29.63;27.47;;;;;;;;;;5072082;28;20456;-76
2022/08/14 11:21:50;;;;;;;29.27;27.57;;;;;;;;;;5072395;28;20417;-76
2022/08/14 11:24:21;;;;;;;29.17;27.47;;;;;;;;;;5072282;28;20413;-76
2022/08/14 11:26:49;;;;;;;28.90;27.20;;;;;;;;;;5072162;28;20417;-76
2022/08/14 11:29:17;;;;;;;28.83;27.13;;;;;;;;;;5072235;28;20413;-76
2022/08/14 11:31:44;;;;;;;29.33;27.53;;;;;;;;;;5072319;28;20420;-76
2022/08/14 11:34:12;;;;;;;31.27;29.37;;;;;;;;;;5073704;28;20412;-76
2022/08/14 11:36:41;;;;;;;29.73;27.90;;;;;;;;;;5075533;28;20452;-76
2022/08/14 11:39:08;;;;;;;28.80;27.00;;;;;;;;;;5075860;28;20663;-76
2022/08/14 11:41:38;;;;;;;29.53;27.73;;;;;;;;;;5075544;28;20849;-75
2022/08/14 11:44:05;;;;;;;30.17;28.27;;;;;;;;;;5076081;28;20420;-75
2022/08/14 11:46:33;;;;;;;29.40;27.60;;;;;;;;;;5075723;28;20437;-76
2022/08/14 11:49:01;;;;;;;29.63;27.83;;;;;;;;;;5075797;28;20423;-76
2022/08/14 11:51:28;;;;;;;28.53;26.87;;;;;;;;;;5075566;28;20839;-76
2022/08/14 11:53:57;;;;;;;28.60;26.90;;;;;;;;;;5075829;28;20427;-76
2022/08/14 11:56:24;;;;;;;28.40;26.60;;;;;;;;;;5075135;28;20467;-76
2022/08/14 11:58:53;;;;;;;28.10;26.33;;;;;;;;;;5075629;28;20474;-76
2022/08/14 12:01:29;;;;;;;28.10;26.40;;;;;;;;;;5075542;28;20416;-76
2022/08/14 12:04:08;;;;;;;28.77;27.07;;;;;;;;;;5075426;28;20437;-76
2022/08/14 12:06:44;;;;;;;28.93;27.13;;;;;;;;;;5075640;28;20423;-75
2022/08/14 12:09:12;;;;;;;28.97;27.20;;;;;;;;;;5075189;28;20885;-76
2022/08/14 12:11:40;;;;;;;28.60;27.00;;;;;;;;;;5075042;28;20415;-77
2022/08/14 12:14:09;;;;;;;28.27;26.57;;;;;;;;;;5074992;28;20401;-76
2022/08/14 12:16:36;;;;;;;28.40;26.70;;;;;;;;;;5075157;28;20460;-76
2022/08/14 12:19:04;;;;;;;28.87;27.17;;;;;;;;;;5074423;28;20488;-76
2022/08/14 12:21:32;;;;;;;29.43;27.63;;;;;;;;;;5075192;28;20417;-76
2022/08/14 12:24:04;;;;;;;29.23;27.40;;;;;;;;;;5075140;28;20467;-76
2022/08/14 12:26:31;;;;;;;28.60;26.80;;;;;;;;;;5074639;28;20438;-76
2022/08/14 12:29:07;;;;;;;28.10;26.40;;;;;;;;;;5074666;28;20886;-76
2022/08/14 12:31:36;;;;;;;29.50;27.60;;;;;;;;;;5075105;28;20412;-76
2022/08/14 12:34:04;;;;;;;29.77;27.87;;;;;;;;;;5074599;28;20736;-76
2022/08/14 12:36:31;;;;;;;28.40;26.80;;;;;;;;;;5074459;28;20460;-76
2022/08/14 12:38:59;;;;;;;29.10;27.30;;;;;;;;;;5074444;28;20777;-76
2022/08/14 12:41:28;;;;;;;29.87;27.90;;;;;;;;;;5074802;28;20404;-76
2022/08/14 12:43:57;;;;;;;28.70;27.00;;;;;;;;;;5074807;28;20420;-76
2022/08/14 12:46:25;;;;;;;29.47;27.70;;;;;;;;;;5074137;28;20408;-76
2022/08/14 12:48:54;;;;;;;28.90;27.30;;;;;;;;;;5074337;28;20454;-76
2022/08/14 12:51:24;;;;;;;29.10;27.20;;;;;;;;;;5074258;28;20931;-76
2022/08/14 12:53:52;;;;;;;30.20;28.30;;;;;;;;;;5074273;28;20421;-76
2022/08/14 12:56:20;;;;;;;29.67;27.97;;;;;;;;;;5074330;28;20477;-76
2022/08/14 12:58:50;;;;;;;29.53;27.83;;;;;;;;;;5074082;28;20931;-75
2022/08/14 13:01:21;;;;;;;30.00;28.20;;;;;;;;;;5074574;28;20468;-76
2022/08/14 13:03:48;;;;;;;29.30;27.60;;;;;;;;;;5074292;28;20433;-76
2022/08/14 13:06:18;;;;;;;28.60;27.00;;;;;;;;;;5074080;28;20438;-76
2022/08/14 13:08:45;;;;;;;29.70;28.00;;;;;;;;;;5074221;28;20438;-75
2022/08/14 13:11:13;;;;;;;29.17;27.30;;;;;;;;;;5074249;28;20441;-76
2022/08/14 13:13:43;;;;;;;29.50;27.80;;;;;;;;;;5073798;28;20416;-75
2022/08/14 13:16:15;;;;;;;28.23;26.63;;;;;;;;;;5074050;28;20514;-76
2022/08/14 13:18:43;;;;;;;27.47;25.87;;;;;;;;;;5073799;28;20478;-76
2022/08/14 13:21:12;;;;;;;28.03;26.43;;;;;;;;;;5073876;28;20417;-76
2022/08/14 13:23:42;;;;;;;27.87;26.27;;;;;;;;;;5073939;28;20446;-76
2022/08/14 13:26:10;;;;;;;26.63;25.10;;;;;;;;;;5073412;28;20449;-76
2022/08/14 13:28:39;;;;;;;27.93;26.33;;;;;;;;;;5073873;28;20407;-76
2022/08/14 13:31:08;;;;;;;27.30;25.60;;;;;;;;;;5073831;28;20402;-76
2022/08/14 13:33:37;;;;;;;27.87;26.17;;;;;;;;;;5073538;28;20438;-76
2022/08/14 13:36:04;;;;;;;28.33;26.63;;;;;;;;;;5073740;28;20507;-76
2022/08/14 13:38:32;;;;;;;27.40;25.80;;;;;;;;;;5073495;28;20440;-76
2022/08/14 13:41:01;;;;;;;28.30;26.70;;;;;;;;;;5073578;28;20435;-76
2022/08/14 13:43:28;;;;;;;27.63;26.03;;;;;;;;;;5073228;28;20816;-76
2022/08/14 13:45:56;;;;;;;28.13;26.43;;;;;;;;;;5073331;28;20822;-76
2022/08/14 13:48:24;;;;;;;28.17;26.47;;;;;;;;;;5071863;28;20452;-76
2022/08/14 13:50:54;;;;;;;29.00;27.30;;;;;;;;;;5073647;28;20438;-76
2022/08/14 13:53:23;;;;;;;28.83;27.13;;;;;;;;;;5073633;28;20424;-76
2022/08/14 13:55:52;;;;;;;28.83;27.10;;;;;;;;;;5072888;28;20834;-76
2022/08/14 13:58:22;;;;;;;27.80;26.20;;;;;;;;;;5072532;28;20440;-76
2022/08/14 14:00:51;;;;;;;28.97;27.17;;;;;;;;;;5073303;28;20439;-76
2022/08/14 14:03:19;;;;;;;27.30;25.70;;;;;;;;;;5073264;28;20440;-76
2022/08/14 14:05:50;;;;;;;27.97;26.37;;;;;;;;;;5073239;28;20409;-76
2022/08/14 14:08:17;;;;;;;27.93;26.23;;;;;;;;;;5073169;28;20423;-75
2022/08/14 14:10:45;;;;;;;27.27;25.50;;;;;;;;;;5072975;28;20437;-76
2022/08/14 14:13:15;;;;;;;28.07;26.47;;;;;;;;;;5072865;28;20438;-76
2022/08/14 14:15:44;;;;;;;27.83;26.23;;;;;;;;;;5072800;28;20424;-76
2022/08/14 14:18:11;;;;;;;28.60;26.83;;;;;;;;;;5072844;28;20488;-75
2022/08/14 14:20:39;;;;;;;29.30;27.50;;;;;;;;;;5073074;28;20446;-76
2022/08/14 14:23:09;;;;;;;30.37;28.47;;;;;;;;;;5072704;28;20769;-76
2022/08/14 14:25:41;;;;;;;30.10;28.30;;;;;;;;;;5072661;28;20463;-76
2022/08/14 14:28:08;;;;;;;27.57;25.97;;;;;;;;;;5072568;28;21038;-76
2022/08/14 14:30:39;;;;;;;26.30;24.80;;;;;;;;;;5072857;28;20431;-76
2022/08/14 14:33:10;;;;;;;27.93;26.23;;;;;;;;;;5072872;28;20445;-76
2022/08/14 14:35:38;;;;;;;27.40;25.80;;;;;;;;;;5073109;28;20405;-76
2022/08/14 14:38:07;;;;;;;27.03;25.40;;;;;;;;;;5072658;28;20901;-76
2022/08/14 14:40:36;;;;;;;27.53;25.67;;;;;;;;;;5072423;28;20430;-76
2022/08/14 14:43:04;;;;;;;27.73;26.13;;;;;;;;;;5072880;28;20499;-76